Time;durP1;ratioP1;P1;durP2;ratioP2;P2;SDS_P1;SDS_P2;PMS_P1;PMS_P2;Temp;Humidity;BMP_temperature;BMP_pressure;BME280_temperature;BME280_humidity;BME280_pressure;Samples;Min_cycle;Max_cycle;Signal;HPM_P1;HPM_P2
2023/08/17 00:01:15;;;;;;;;;;;;;;;;;;4950248;28;19910;-91
2023/08/17 00:03:41;;;;;;;;;;;;;;;;;;4954868;28;20109;-91
2023/08/17 00:06:07;;;;;;;;;;;;;;;;;;4971437;28;19937;-91
2023/08/17 00:08:33;;;;;;;;;;;;;;;;;;4955794;28;19984;-91
2023/08/17 00:10:59;;;;;;;;;;;;;;;;;;4954937;28;19946;-91
2023/08/17 00:13:28;;;;;;;;;;;;;;;;;;4969147;28;19945;-91
2023/08/17 00:15:54;;;;;;;;;;;;;;;;;;4951850;28;19910;-91
2023/08/17 00:18:19;;;;;;;;;;;;;;;;;;4951341;28;19910;-91
2023/08/17 00:20:45;;;;;;;;;;;;;;;;;;4954303;28;19933;-91
2023/08/17 00:23:11;;;;;;;;;;;;;;;;;;4953973;28;20366;-91
2023/08/17 00:25:37;;;;;;;;;;;;;;;;;;4953469;28;19914;-91
2023/08/17 00:28:03;;;;;;;;;;;;;;;;;;4953895;28;19913;-92
2023/08/17 00:30:29;;;;;;;;;;;;;;;;;;4954211;28;19910;-90
2023/08/17 00:32:58;;;;;;;;;;;;;;;;;;4971886;28;19917;-89
2023/08/17 00:35:24;;;;;;;;;;;;;;;;;;4955303;28;19918;-92
2023/08/17 00:37:50;;;;;;;;;;;;;;;;;;4970328;28;20168;-91
2023/08/17 00:40:19;;;;;;;;;;;;;;;;;;4956287;28;19909;-91
2023/08/17 00:42:45;;;;;;;;;;;;;;;;;;4953485;28;19918;-91
2023/08/17 00:45:11;;;;;;;;;;;;;;;;;;4957269;28;19914;-93
2023/08/17 00:47:40;;;;;;;;;;;;;;;;;;4971678;28;19918;-93
2023/08/17 00:50:06;;;;;;;;;;;;;;;;;;4971763;28;19996;-93
2023/08/17 00:52:32;;;;;;;;;;;;;;;;;;4971030;28;20339;-92
2023/08/17 00:54:58;;;;;;;;;;;;;;;;;;4958683;28;19914;-92
2023/08/17 00:57:24;;;;;;;;;;;;;;;;;;4972109;28;19956;-93
2023/08/17 00:59:50;;;;;;;;;;;;;;;;;;4958997;28;20422;-93
2023/08/17 01:02:16;;;;;;;;;;;;;;;;;;4963367;28;19980;-93
2023/08/17 01:04:42;;;;;;;;;;;;;;;;;;4953599;28;20394;-93
2023/08/17 01:07:08;;;;;;;;;;;;;;;;;;4956838;28;19937;-93
2023/08/17 01:09:34;;;;;;;;;;;;;;;;;;4970975;28;19926;-93
2023/08/17 01:12:00;;;;;;;;;;;;;;;;;;4955589;28;19914;-93
2023/08/17 01:14:26;;;;;;;;;;;;;;;;;;4971179;28;19921;-93
2023/08/17 01:16:52;;;;;;;;;;;;;;;;;;4958726;28;20607;-93
2023/08/17 01:19:18;;;;;;;;;;;;;;;;;;4952610;28;20013;-93
2023/08/17 01:21:44;;;;;;;;;;;;;;;;;;4972989;28;19914;-92
2023/08/17 01:24:10;;;;;;;;;;;;;;;;;;4973017;28;19918;-92
2023/08/17 01:26:36;;;;;;;;;;;;;;;;;;4975661;28;20005;-93
2023/08/17 01:29:02;;;;;;;;;;;;;;;;;;4976805;28;19918;-92
2023/08/17 01:31:31;;;;;;;;;;;;;;;;;;4957441;28;19914;-92
2023/08/17 01:33:57;;;;;;;;;;;;;;;;;;4973083;28;19933;-93
2023/08/17 01:36:23;;;;;;;;;;;;;;;;;;4956922;28;19914;-93
2023/08/17 01:38:49;;;;;;;;;;;;;;;;;;4972499;28;19921;-91
2023/08/17 01:41:15;;;;;;;;;;;;;;;;;;4979508;28;19935;-92
2023/08/17 01:43:42;;;;;;;;;;;;;;;;;;4973509;28;19914;-91
2023/08/17 01:46:11;;;;;;;;;;;;;;;;;;4973725;28;19910;-92
2023/08/17 01:48:37;;;;;;;;;;;;;;;;;;4971372;28;19922;-91
2023/08/17 01:51:03;;;;;;;;;;;;;;;;;;4972461;28;19914;-91
2023/08/17 01:53:29;;;;;;;;;;;;;;;;;;4951591;28;19914;-91
2023/08/17 01:55:54;;;;;;;;;;;;;;;;;;4956302;28;19937;-93
2023/08/17 01:58:23;;;;;;;;;;;;;;;;;;4974037;28;20363;-93
2023/08/17 02:00:49;;;;;;;;;;;;;;;;;;4978950;28;19912;-93
2023/08/17 02:03:15;;;;;;;;;;;;;;;;;;4975798;28;20497;-94
2023/08/17 02:05:41;;;;;;;;;;;;;;;;;;4956966;28;20515;-93
2023/08/17 02:08:07;;;;;;;;;;;;;;;;;;4959235;28;19922;-93
2023/08/17 02:10:33;;;;;;;;;;;;;;;;;;4960391;28;19921;-93
2023/08/17 02:12:59;;;;;;;;;;;;;;;;;;4974660;28;20228;-93
2023/08/17 02:15:25;;;;;;;;;;;;;;;;;;4975347;28;20274;-92
2023/08/17 02:17:54;;;;;;;;;;;;;;;;;;4959451;28;19914;-93
2023/08/17 02:20:19;;;;;;;;;;;;;;;;;;4970081;28;19918;-92
2023/08/17 02:22:45;;;;;;;;;;;;;;;;;;4972030;28;19914;-94
2023/08/17 02:25:12;;;;;;;;;;;;;;;;;;4955591;28;20000;-92
2023/08/17 02:27:38;;;;;;;;;;;;;;;;;;4971144;28;20389;-93
2023/08/17 02:30:04;;;;;;;;;;;;;;;;;;4957153;28;19961;-92
2023/08/17 02:32:30;;;;;;;;;;;;;;;;;;4955693;28;19948;-93
2023/08/17 02:34:59;;;;;;;;;;;;;;;;;;4971984;28;19965;-93
2023/08/17 02:37:25;;;;;;;;;;;;;;;;;;4956062;28;19914;-93
2023/08/17 02:39:51;;;;;;;;;;;;;;;;;;4953010;28;19933;-93
2023/08/17 02:42:17;;;;;;;;;;;;;;;;;;4956831;28;19914;-93
2023/08/17 02:44:43;;;;;;;;;;;;;;;;;;4974281;28;19909;-92
2023/08/17 02:47:09;;;;;;;;;;;;;;;;;;4972018;28;19917;-92
2023/08/17 02:49:35;;;;;;;;;;;;;;;;;;4977488;28;19915;-92
2023/08/17 02:52:01;;;;;;;;;;;;;;;;;;4958318;28;19924;-94
2023/08/17 02:54:27;;;;;;;;;;;;;;;;;;4969570;28;19917;-94
2023/08/17 02:56:53;;;;;;;;;;;;;;;;;;4957292;28;20814;-93
2023/08/17 02:59:19;;;;;;;;;;;;;;;;;;4955090;28;19914;-94
2023/08/17 03:01:45;;;;;;;;;;;;;;;;;;4957441;28;19914;-92
2023/08/17 03:04:11;;;;;;;;;;;;;;;;;;4967614;28;19993;-94
2023/08/17 03:06:37;;;;;;;;;;;;;;;;;;4946873;28;20036;-91
2023/08/17 03:09:06;;;;;;;;;;;;;;;;;;4938828;29;20042;-94
2023/08/17 03:11:32;;;;;;;;;;;;;;;;;;4937581;29;19918;-94
2023/08/17 03:14:01;;;;;;;;;;;;;;;;;;4931473;29;19919;-93
2023/08/17 03:16:27;;;;;;;;;;;;;;;;;;4949203;28;19910;-90
2023/08/17 03:18:53;;;;;;;;;;;;;;;;;;4937208;29;19905;-91
2023/08/17 03:21:19;;;;;;;;;;;;;;;;;;4949115;28;19911;-92
2023/08/17 03:23:45;;;;;;;;;;;;;;;;;;4937420;29;20126;-91
2023/08/17 03:26:11;;;;;;;;;;;;;;;;;;4930141;28;20220;-93
2023/08/17 03:28:37;;;;;;;;;;;;;;;;;;4935232;29;20017;-91
2023/08/17 03:31:03;;;;;;;;;;;;;;;;;;4951029;28;19920;-91
2023/08/17 03:33:29;;;;;;;;;;;;;;;;;;4929857;29;19914;-91
2023/08/17 03:35:55;;;;;;;;;;;;;;;;;;4934129;29;19918;-91
2023/08/17 03:38:21;;;;;;;;;;;;;;;;;;4931403;29;20314;-93
2023/08/17 03:40:47;;;;;;;;;;;;;;;;;;4932282;28;19953;-92
2023/08/17 03:43:13;;;;;;;;;;;;;;;;;;4931731;28;19918;-92
2023/08/17 03:45:42;;;;;;;;;;;;;;;;;;4929758;29;20267;-91
2023/08/17 03:48:08;;;;;;;;;;;;;;;;;;4946651;28;19984;-92
2023/08/17 03:50:34;;;;;;;;;;;;;;;;;;4932972;29;19941;-92
2023/08/17 03:53:00;;;;;;;;;;;;;;;;;;4933958;28;19911;-92
2023/08/17 03:55:26;;;;;;;;;;;;;;;;;;4933657;29;19973;-91
2023/08/17 03:57:52;;;;;;;;;;;;;;;;;;4930836;29;19921;-91
2023/08/17 04:00:18;;;;;;;;;;;;;;;;;;4930331;29;22194;-92
2023/08/17 04:02:44;;;;;;;;;;;;;;;;;;4927672;29;20009;-92
2023/08/17 04:05:10;;;;;;;;;;;;;;;;;;4936165;28;19949;-93
2023/08/17 04:07:39;;;;;;;;;;;;;;;;;;4952983;28;19977;-92
2023/08/17 04:10:05;;;;;;;;;;;;;;;;;;4950178;28;20324;-92
2023/08/17 04:12:31;;;;;;;;;;;;;;;;;;4951471;28;19914;-93
2023/08/17 04:14:57;;;;;;;;;;;;;;;;;;4952029;28;19918;-93
2023/08/17 04:17:23;;;;;;;;;;;;;;;;;;4963137;28;19914;-93
2023/08/17 04:19:49;;;;;;;;;;;;;;;;;;4948463;28;19933;-94
2023/08/17 04:22:15;;;;;;;;;;;;;;;;;;4964718;28;19949;-92
2023/08/17 04:24:41;;;;;;;;;;;;;;;;;;4949295;28;20099;-92
2023/08/17 04:27:07;;;;;;;;;;;;;;;;;;4950227;28;20029;-92
2023/08/17 04:29:33;;;;;;;;;;;;;;;;;;4967977;28;20367;-93
2023/08/17 04:31:59;;;;;;;;;;;;;;;;;;4968227;28;19910;-93
2023/08/17 04:34:25;;;;;;;;;;;;;;;;;;4967193;28;20259;-93
2023/08/17 04:36:51;;;;;;;;;;;;;;;;;;4952797;28;19914;-93
2023/08/17 04:39:17;;;;;;;;;;;;;;;;;;4955793;28;19925;-93
2023/08/17 04:41:43;;;;;;;;;;;;;;;;;;4956854;28;19914;-93
2023/08/17 04:44:09;;;;;;;;;;;;;;;;;;4953550;28;20643;-92
2023/08/17 04:46:35;;;;;;;;;;;;;;;;;;4969814;28;20222;-93
2023/08/17 04:49:01;;;;;;;;;;;;;;;;;;4954499;28;19918;-93
2023/08/17 04:51:27;;;;;;;;;;;;;;;;;;4953742;28;19914;-93
2023/08/17 04:53:53;;;;;;;;;;;;;;;;;;4953460;28;19968;-93
2023/08/17 04:56:21;;;;;;;;;;;;;;;;;;4967618;28;19918;-92
2023/08/17 04:58:51;;;;;;;;;;;;;;;;;;4969200;28;19973;-92
2023/08/17 05:01:18;;;;;;;;;;;;;;;;;;4951756;28;19918;-93
2023/08/17 05:03:44;;;;;;;;;;;;;;;;;;4949453;28;20408;-91
2023/08/17 05:06:16;;;;;;;;;;;;;;;;;;4965912;28;19914;-90
2023/08/17 05:08:42;;;;;;;;;;;;;;;;;;4948582;28;19927;-90
2023/08/17 05:11:08;;;;;;;;;;;;;;;;;;4933569;28;19966;-91
2023/08/17 05:13:34;;;;;;;;;;;;;;;;;;4948788;28;19910;-90
2023/08/17 05:16:03;;;;;;;;;;;;;;;;;;4936201;28;19926;-91
2023/08/17 05:18:29;;;;;;;;;;;;;;;;;;4934713;28;19914;-91
2023/08/17 05:20:58;;;;;;;;;;;;;;;;;;4933248;29;19918;-90
2023/08/17 05:23:24;;;;;;;;;;;;;;;;;;4934336;28;20487;-89
2023/08/17 05:25:50;;;;;;;;;;;;;;;;;;4936152;29;19911;-89
2023/08/17 05:28:16;;;;;;;;;;;;;;;;;;4950508;28;19921;-88
2023/08/17 05:30:42;;;;;;;;;;;;;;;;;;4941678;28;20191;-89
2023/08/17 05:33:08;;;;;;;;;;;;;;;;;;4938111;28;19914;-89
2023/08/17 05:35:34;;;;;;;;;;;;;;;;;;4931877;29;19911;-89
2023/08/17 05:38:02;;;;;;;;;;;;;;;;;;4935531;28;19947;-89
2023/08/17 05:40:28;;;;;;;;;;;;;;;;;;4952225;28;19958;-90
2023/08/17 05:42:54;;;;;;;;;;;;;;;;;;4940710;28;19914;-90
2023/08/17 05:45:23;;;;;;;;;;;;;;;;;;4936989;29;20642;-89
2023/08/17 05:47:49;;;;;;;;;;;;;;;;;;4938740;29;19969;-89
2023/08/17 05:50:15;;;;;;;;;;;;;;;;;;4937427;28;19997;-90
2023/08/17 05:52:41;;;;;;;;;;;;;;;;;;4953422;28;19957;-90
2023/08/17 05:55:07;;;;;;;;;;;;;;;;;;4940269;28;22140;-90
2023/08/17 05:57:33;;;;;;;;;;;;;;;;;;4938031;28;20314;-90
2023/08/17 05:59:59;;;;;;;;;;;;;;;;;;4941006;28;20355;-89
2023/08/17 06:02:25;;;;;;;;;;;;;;;;;;4940865;28;19914;-90
2023/08/17 06:04:51;;;;;;;;;;;;;;;;;;4941739;28;19916;-89
2023/08/17 06:07:17;;;;;;;;;;;;;;;;;;4967512;28;20400;-90
2023/08/17 06:09:43;;;;;;;;;;;;;;;;;;4957811;28;19924;-90
2023/08/17 06:12:09;;;;;;;;;;;;;;;;;;4957402;28;19910;-89
2023/08/17 06:14:35;;;;;;;;;;;;;;;;;;4955909;28;19910;-89
2023/08/17 06:17:01;;;;;;;;;;;;;;;;;;4953242;28;19918;-90
2023/08/17 06:19:27;;;;;;;;;;;;;;;;;;4975643;28;20393;-90
2023/08/17 06:21:56;;;;;;;;;;;;;;;;;;4973013;28;19914;-90
2023/08/17 06:24:22;;;;;;;;;;;;;;;;;;4970523;28;19917;-90
2023/08/17 06:26:51;;;;;;;;;;;;;;;;;;4969941;28;20389;-90
2023/08/17 06:29:17;;;;;;;;;;;;;;;;;;4954200;28;19918;-90
2023/08/17 06:31:46;;;;;;;;;;;;;;;;;;4950478;28;19918;-90
2023/08/17 06:34:12;;;;;;;;;;;;;;;;;;4946836;28;19937;-91
2023/08/17 06:36:39;;;;;;;;;;;;;;;;;;4961298;28;19918;-91
2023/08/17 06:39:05;;;;;;;;;;;;;;;;;;4948374;28;19917;-91
2023/08/17 06:41:31;;;;;;;;;;;;;;;;;;4958220;28;19948;-93
2023/08/17 06:43:59;;;;;;;;;;;;;;;;;;4959720;28;19949;-91
2023/08/17 06:46:26;;;;;;;;;;;;;;;;;;4940692;28;20012;-91
2023/08/17 06:48:52;;;;;;;;;;;;;;;;;;4944001;28;19920;-91
2023/08/17 06:51:18;;;;;;;;;;;;;;;;;;4944742;28;19910;-92
2023/08/17 06:53:44;;;;;;;;;;;;;;;;;;4944053;28;19993;-92
2023/08/17 06:56:13;;;;;;;;;;;;;;;;;;4960655;28;20814;-92
2023/08/17 06:58:40;;;;;;;;;;;;;;;;;;4962300;28;19915;-90
2023/08/17 07:01:05;;;;;;;;;;;;;;;;;;4965776;28;19977;-91
2023/08/17 07:03:32;;;;;;;;;;;;;;;;;;4947600;28;20002;-90
2023/08/17 07:05:58;;;;;;;;;;;;;;;;;;4943697;28;20013;-92
2023/08/17 07:08:36;;;;;;;;;;;;;;;;;;4946655;28;20326;-91
2023/08/17 07:11:05;;;;;;;;;;;;;;;;;;4947285;28;20279;-91
2023/08/17 07:13:31;;;;;;;;;;;;;;;;;;4943251;28;19913;-91
2023/08/17 07:15:57;;;;;;;;;;;;;;;;;;4943612;28;19914;-92
2023/08/17 07:18:23;;;;;;;;;;;;;;;;;;4943704;28;19920;-91
2023/08/17 07:20:49;;;;;;;;;;;;;;;;;;4943194;28;19910;-92
2023/08/17 07:23:15;;;;;;;;;;;;;;;;;;4960583;28;19983;-91
2023/08/17 07:25:41;;;;;;;;;;;;;;;;;;4945767;28;20519;-92
2023/08/17 07:28:07;;;;;;;;;;;;;;;;;;4946171;28;20012;-92
2023/08/17 07:30:36;;;;;;;;;;;;;;;;;;4944651;28;19918;-91
2023/08/17 07:33:02;;;;;;;;;;;;;;;;;;4947789;28;19938;-91
2023/08/17 07:35:28;;;;;;;;;;;;;;;;;;4960876;28;19930;-90
2023/08/17 07:37:53;;;;;;;;;;;;;;;;;;4961208;28;19914;-90
2023/08/17 07:40:19;;;;;;;;;;;;;;;;;;4947712;28;19910;-89
2023/08/17 07:42:46;;;;;;;;;;;;;;;;;;4964136;28;19934;-90
2023/08/17 07:45:12;;;;;;;;;;;;;;;;;;4947984;28;19916;-89
2023/08/17 07:47:38;;;;;;;;;;;;;;;;;;4968001;28;19921;-89
2023/08/17 07:50:04;;;;;;;;;;;;;;;;;;4949908;28;19983;-89
2023/08/17 07:52:30;;;;;;;;;;;;;;;;;;4950586;28;20590;-89
2023/08/17 07:54:56;;;;;;;;;;;;;;;;;;4965549;28;19921;-89
2023/08/17 07:57:21;;;;;;;;;;;;;;;;;;4965644;28;19978;-89
2023/08/17 07:59:47;;;;;;;;;;;;;;;;;;4952201;28;19991;-88
2023/08/17 08:02:13;;;;;;;;;;;;;;;;;;4952262;28;20621;-89
2023/08/17 08:04:39;;;;;;;;;;;;;;;;;;4952191;28;20006;-88
2023/08/17 08:07:05;;;;;;;;;;;;;;;;;;4954312;28;19918;-88
2023/08/17 08:09:31;;;;;;;;;;;;;;;;;;4965936;28;19997;-89
2023/08/17 08:11:57;;;;;;;;;;;;;;;;;;4970071;28;19910;-89
2023/08/17 08:14:23;;;;;;;;;;;;;;;;;;4948446;28;19925;-88
2023/08/17 08:16:49;;;;;;;;;;;;;;;;;;4945925;28;19910;-91
2023/08/17 08:19:15;;;;;;;;;;;;;;;;;;4952962;28;19914;-90
2023/08/17 08:21:41;;;;;;;;;;;;;;;;;;4952645;28;20480;-89
2023/08/17 08:24:07;;;;;;;;;;;;;;;;;;4951915;28;19913;-88
2023/08/17 08:26:33;;;;;;;;;;;;;;;;;;4951357;28;20904;-89
2023/08/17 08:28:59;;;;;;;;;;;;;;;;;;4951496;28;19951;-89
2023/08/17 08:31:25;;;;;;;;;;;;;;;;;;4950139;28;19921;-90
2023/08/17 08:33:52;;;;;;;;;;;;;;;;;;4971654;28;19914;-89
2023/08/17 08:36:18;;;;;;;;;;;;;;;;;;4955121;28;19914;-89
2023/08/17 08:38:44;;;;;;;;;;;;;;;;;;4965414;28;20405;-90
2023/08/17 08:41:10;;;;;;;;;;;;;;;;;;4965069;28;19918;-90
2023/08/17 08:43:36;;;;;;;;;;;;;;;;;;4949270;28;19910;-90
2023/08/17 08:46:02;;;;;;;;;;;;;;;;;;4953015;28;19910;-88
2023/08/17 08:48:28;;;;;;;;;;;;;;;;;;4953742;28;19961;-88
2023/08/17 08:50:54;;;;;;;;;;;;;;;;;;4968369;28;19914;-88
2023/08/17 08:53:20;;;;;;;;;;;;;;;;;;4966675;28;19962;-88
2023/08/17 08:55:46;;;;;;;;;;;;;;;;;;4966566;28;19945;-90
2023/08/17 08:58:12;;;;;;;;;;;;;;;;;;4947401;28;20173;-89
2023/08/17 09:00:44;;;;;;;;;;;;;;;;;;4950924;28;20381;-89
2023/08/17 09:03:10;;;;;;;;;;;;;;;;;;4947377;28;19914;-90
2023/08/17 09:05:36;;;;;;;;;;;;;;;;;;4947287;28;19952;-90
2023/08/17 09:08:02;;;;;;;;;;;;;;;;;;4965318;28;19925;-89
2023/08/17 09:10:28;;;;;;;;;;;;;;;;;;4962141;28;19913;-90
2023/08/17 09:12:54;;;;;;;;;;;;;;;;;;4961334;28;19922;-90
2023/08/17 09:15:20;;;;;;;;;;;;;;;;;;4961378;28;19969;-91
2023/08/17 09:17:48;;;;;;;;;;;;;;;;;;4965797;28;19917;-90
2023/08/17 09:20:14;;;;;;;;;;;;;;;;;;4983689;28;20674;-91
2023/08/17 09:22:40;;;;;;;;;;;;;;;;;;4964645;28;19938;-91
2023/08/17 09:25:06;;;;;;;;;;;;;;;;;;4964039;28;19910;-90
2023/08/17 09:27:32;;;;;;;;;;;;;;;;;;4983395;28;19933;-90
2023/08/17 09:29:58;;;;;;;;;;;;;;;;;;4992293;28;19925;-90
2023/08/17 09:32:24;;;;;;;;;;;;;;;;;;4975336;28;19918;-91
2023/08/17 09:34:50;;;;;;;;;;;;;;;;;;4977379;28;20306;-91
2023/08/17 09:37:16;;;;;;;;;;;;;;;;;;4966465;28;20355;-91
2023/08/17 09:39:42;;;;;;;;;;;;;;;;;;4978524;28;19941;-90
2023/08/17 09:42:08;;;;;;;;;;;;;;;;;;4962941;28;19914;-90
2023/08/17 09:44:35;;;;;;;;;;;;;;;;;;4961769;28;19910;-91
2023/08/17 09:47:01;;;;;;;;;;;;;;;;;;4964307;28;19918;-90
2023/08/17 09:49:27;;;;;;;;;;;;;;;;;;4978540;28;19917;-91
2023/08/17 09:51:53;;;;;;;;;;;;;;;;;;4959288;28;19997;-90
2023/08/17 09:54:19;;;;;;;;;;;;;;;;;;4975578;28;19937;-91
2023/08/17 09:56:45;;;;;;;;;;;;;;;;;;4962263;28;19933;-91
2023/08/17 09:59:11;;;;;;;;;;;;;;;;;;4976532;28;19914;-91
2023/08/17 10:01:36;;;;;;;;;;;;;;;;;;4976964;28;19909;-91
2023/08/17 10:04:06;;;;;;;;;;;;;;;;;;4979055;28;20059;-92
2023/08/17 10:06:41;;;;;;;;;;;;;;;;;;4964122;28;19913;-90
2023/08/17 10:09:06;;;;;;;;;;;;;;;;;;4976923;28;20025;-90
2023/08/17 10:11:32;;;;;;;;;;;;;;;;;;4960330;28;20318;-90
2023/08/17 10:13:58;;;;;;;;;;;;;;;;;;4964728;28;19914;-89
2023/08/17 10:16:24;;;;;;;;;;;;;;;;;;4962772;28;19949;-89
2023/08/17 10:18:51;;;;;;;;;;;;;;;;;;4958893;28;19911;-90
2023/08/17 10:21:17;;;;;;;;;;;;;;;;;;4979078;28;19921;-90
2023/08/17 10:23:43;;;;;;;;;;;;;;;;;;4961729;28;19914;-89
2023/08/17 10:26:09;;;;;;;;;;;;;;;;;;4973583;28;19914;-90
2023/08/17 10:28:39;;;;;;;;;;;;;;;;;;4962854;28;19914;-90
2023/08/17 10:31:07;;;;;;;;;;;;;;;;;;4962737;28;19920;-91
2023/08/17 10:33:33;;;;;;;;;;;;;;;;;;4981709;28;19914;-90
2023/08/17 10:36:02;;;;;;;;;;;;;;;;;;4979686;28;19906;-90
2023/08/17 10:38:31;;;;;;;;;;;;;;;;;;4977365;28;19914;-90
2023/08/17 10:40:59;;;;;;;;;;;;;;;;;;4957722;28;20355;-91
2023/08/17 10:43:25;;;;;;;;;;;;;;;;;;4966726;28;20400;-91
2023/08/17 10:45:51;;;;;;;;;;;;;;;;;;4961781;28;19913;-91
2023/08/17 10:48:17;;;;;;;;;;;;;;;;;;4961592;28;19922;-90
2023/08/17 10:50:43;;;;;;;;;;;;;;;;;;4960449;28;19969;-91
2023/08/17 10:53:16;;;;;;;;;;;;;;;;;;4959328;28;19916;-91
2023/08/17 10:55:42;;;;;;;;;;;;;;;;;;4964644;28;19921;-89
2023/08/17 10:58:08;;;;;;;;;;;;;;;;;;4958233;28;19909;-90
2023/08/17 11:00:34;;;;;;;;;;;;;;;;;;4959853;28;20453;-91
2023/08/17 11:03:01;;;;;;;;;;;;;;;;;;4960532;28;20147;-90
2023/08/17 11:05:27;;;;;;;;;;;;;;;;;;4956754;28;19941;-91
2023/08/17 11:07:53;;;;;;;;;;;;;;;;;;4962156;28;19957;-90
2023/08/17 11:10:19;;;;;;;;;;;;;;;;;;4960362;28;20001;-90
2023/08/17 11:12:45;;;;;;;;;;;;;;;;;;4959674;28;20008;-90
2023/08/17 11:15:11;;;;;;;;;;;;;;;;;;4973015;28;20448;-91
2023/08/17 11:17:43;;;;;;;;;;;;;;;;;;4958518;28;19913;-90
2023/08/17 11:20:09;;;;;;;;;;;;;;;;;;4968786;28;19914;-90
2023/08/17 11:22:35;;;;;;;;;;;;;;;;;;4960334;28;19941;-90
2023/08/17 11:25:04;;;;;;;;;;;;;;;;;;4955020;28;19914;-90
2023/08/17 11:27:30;;;;;;;;;;;;;;;;;;4959933;28;20417;-91
2023/08/17 11:29:56;;;;;;;;;;;;;;;;;;4969345;28;19918;-91
2023/08/17 11:32:23;;;;;;;;;;;;;;;;;;4969254;28;19957;-91
2023/08/17 11:34:49;;;;;;;;;;;;;;;;;;4950671;28;19914;-90
2023/08/17 11:37:15;;;;;;;;;;;;;;;;;;4954750;28;19918;-90
2023/08/17 11:39:41;;;;;;;;;;;;;;;;;;4966748;28;19914;-90
2023/08/17 11:42:07;;;;;;;;;;;;;;;;;;4971698;28;19910;-90
2023/08/17 11:44:33;;;;;;;;;;;;;;;;;;4971517;28;19921;-90
2023/08/17 11:46:59;;;;;;;;;;;;;;;;;;4958559;28;19916;-90
2023/08/17 11:49:25;;;;;;;;;;;;;;;;;;4957068;28;19965;-91
2023/08/17 11:51:51;;;;;;;;;;;;;;;;;;4959008;28;19914;-90
2023/08/17 11:54:17;;;;;;;;;;;;;;;;;;4958555;28;19949;-91
2023/08/17 11:56:43;;;;;;;;;;;;;;;;;;4957072;28;19925;-90
2023/08/17 11:59:11;;;;;;;;;;;;;;;;;;4972086;28;19911;-89
2023/08/17 12:01:37;;;;;;;;;;;;;;;;;;4956589;28;19925;-90
2023/08/17 12:04:02;;;;;;;;;;;;;;;;;;4957482;28;19910;-90
2023/08/17 12:06:28;;;;;;;;;;;;;;;;;;4971357;28;20043;-89
2023/08/17 12:08:54;;;;;;;;;;;;;;;;;;4955291;28;19919;-89
2023/08/17 12:11:20;;;;;;;;;;;;;;;;;;4940259;28;19914;-90
2023/08/17 12:13:46;;;;;;;;;;;;;;;;;;4934312;28;19914;-90
2023/08/17 12:16:12;;;;;;;;;;;;;;;;;;4938074;28;20043;-90
2023/08/17 12:18:38;;;;;;;;;;;;;;;;;;4939382;28;19961;-89
2023/08/17 12:21:04;;;;;;;;;;;;;;;;;;4950927;28;19938;-90
2023/08/17 12:23:36;;;;;;;;;;;;;;;;;;4933675;28;19910;-90
2023/08/17 12:26:08;;;;;;;;;;;;;;;;;;4935734;28;19914;-91
2023/08/17 12:28:34;;;;;;;;;;;;;;;;;;4935846;29;19914;-91
2023/08/17 12:31:00;;;;;;;;;;;;;;;;;;4934499;28;19942;-91
2023/08/17 12:33:26;;;;;;;;;;;;;;;;;;4937078;28;19919;-91
2023/08/17 12:35:53;;;;;;;;;;;;;;;;;;4949351;28;19914;-90
2023/08/17 12:38:19;;;;;;;;;;;;;;;;;;4936642;29;20272;-90
2023/08/17 12:40:45;;;;;;;;;;;;;;;;;;4934025;29;19917;-90
2023/08/17 12:43:11;;;;;;;;;;;;;;;;;;4923931;29;19918;-89
2023/08/17 12:45:37;;;;;;;;;;;;;;;;;;4937777;28;19954;-89
2023/08/17 12:48:03;;;;;;;;;;;;;;;;;;4923675;29;19957;-89
2023/08/17 12:50:29;;;;;;;;;;;;;;;;;;4928969;29;19925;-89
2023/08/17 12:52:55;;;;;;;;;;;;;;;;;;4930930;29;19918;-89
2023/08/17 12:55:21;;;;;;;;;;;;;;;;;;4944017;28;20071;-89
2023/08/17 12:57:47;;;;;;;;;;;;;;;;;;4943093;28;20522;-89
2023/08/17 13:00:13;;;;;;;;;;;;;;;;;;4929512;28;19916;-89
2023/08/17 13:02:39;;;;;;;;;;;;;;;;;;4946323;28;19924;-90
2023/08/17 13:05:05;;;;;;;;;;;;;;;;;;4944635;28;19921;-89
2023/08/17 13:07:30;;;;;;;;;;;;;;;;;;4929267;28;20579;-89
2023/08/17 13:09:57;;;;;;;;;;;;;;;;;;4945208;28;20369;-89
2023/08/17 13:12:23;;;;;;;;;;;;;;;;;;4945856;28;19917;-89
2023/08/17 13:14:48;;;;;;;;;;;;;;;;;;4951627;28;19925;-89
2023/08/17 13:17:16;;;;;;;;;;;;;;;;;;4947269;28;19916;-89
2023/08/17 13:19:42;;;;;;;;;;;;;;;;;;4947382;28;20396;-88
2023/08/17 13:22:08;;;;;;;;;;;;;;;;;;4945700;28;19914;-89
2023/08/17 13:24:35;;;;;;;;;;;;;;;;;;4952446;28;19914;-89
2023/08/17 13:27:00;;;;;;;;;;;;;;;;;;4948537;28;20724;-89
2023/08/17 13:29:42;;;;;;;;;;;;;;;;;;4949352;28;19914;-89
2023/08/17 13:32:08;;;;;;;;;;;;;;;;;;4949093;28;20001;-89
2023/08/17 13:34:34;;;;;;;;;;;;;;;;;;4968020;28;20328;-89
2023/08/17 13:36:59;;;;;;;;;;;;;;;;;;4960790;28;19910;-88
2023/08/17 13:39:26;;;;;;;;;;;;;;;;;;4949508;28;22875;-90
2023/08/17 13:41:52;;;;;;;;;;;;;;;;;;4961240;28;19917;-90
2023/08/17 13:44:18;;;;;;;;;;;;;;;;;;4947192;28;19910;-90
2023/08/17 13:46:44;;;;;;;;;;;;;;;;;;4951626;28;19918;-90
2023/08/17 13:49:10;;;;;;;;;;;;;;;;;;4947953;28;19948;-90
2023/08/17 13:51:35;;;;;;;;;;;;;;;;;;4965495;28;19918;-90
2023/08/17 13:54:01;;;;;;;;;;;;;;;;;;4961235;28;19925;-90
2023/08/17 13:56:27;;;;;;;;;;;;;;;;;;4948223;28;19910;-90
2023/08/17 13:58:56;;;;;;;;;;;;;;;;;;4963288;28;19918;-90
2023/08/17 14:01:25;;;;;;;;;;;;;;;;;;4938671;28;19918;-91
2023/08/17 14:03:51;;;;;;;;;;;;;;;;;;4962009;28;20176;-90
2023/08/17 14:06:23;;;;;;;;;;;;;;;;;;4963640;28;19914;-90
2023/08/17 14:08:49;;;;;;;;;;;;;;;;;;4950236;28;20370;-90
2023/08/17 14:11:15;;;;;;;;;;;;;;;;;;4948883;28;19961;-90
2023/08/17 14:13:41;;;;;;;;;;;;;;;;;;4968631;28;20349;-90
2023/08/17 14:16:07;;;;;;;;;;;;;;;;;;4966691;28;20211;-90
2023/08/17 14:18:33;;;;;;;;;;;;;;;;;;4949275;28;19918;-90
2023/08/17 14:20:59;;;;;;;;;;;;;;;;;;4950597;28;20277;-90
2023/08/17 14:23:25;;;;;;;;;;;;;;;;;;4950408;28;19918;-89
2023/08/17 14:25:51;;;;;;;;;;;;;;;;;;4966748;28;19921;-90
2023/08/17 14:28:20;;;;;;;;;;;;;;;;;;4964233;28;19925;-90
2023/08/17 14:30:47;;;;;;;;;;;;;;;;;;4965191;28;20288;-91
2023/08/17 14:33:14;;;;;;;;;;;;;;;;;;4945979;28;19946;-90
2023/08/17 14:35:40;;;;;;;;;;;;;;;;;;4945971;28;20363;-89
2023/08/17 14:38:12;;;;;;;;;;;;;;;;;;4963803;28;19933;-89
2023/08/17 14:40:38;;;;;;;;;;;;;;;;;;4947638;28;19914;-89
2023/08/17 14:43:04;;;;;;;;;;;;;;;;;;4966113;28;20350;-89
2023/08/17 14:45:30;;;;;;;;;;;;;;;;;;4962534;28;19909;-89
2023/08/17 14:47:58;;;;;;;;;;;;;;;;;;4945419;28;19961;-89
2023/08/17 14:50:24;;;;;;;;;;;;;;;;;;4936239;28;19917;-90
2023/08/17 14:52:50;;;;;;;;;;;;;;;;;;4948256;28;20759;-90
2023/08/17 14:55:16;;;;;;;;;;;;;;;;;;4972091;28;20516;-89
2023/08/17 14:57:45;;;;;;;;;;;;;;;;;;4954329;28;19910;-88
2023/08/17 15:00:11;;;;;;;;;;;;;;;;;;4973597;28;19928;-88
2023/08/17 15:02:37;;;;;;;;;;;;;;;;;;4954569;28;19944;-89
2023/08/17 15:05:03;;;;;;;;;;;;;;;;;;4966360;28;19914;-89
2023/08/17 15:07:32;;;;;;;;;;;;;;;;;;4959375;28;20556;-89
2023/08/17 15:09:58;;;;;;;;;;;;;;;;;;4971354;28;19987;-89
2023/08/17 15:12:27;;;;;;;;;;;;;;;;;;4953260;28;19924;-88
2023/08/17 15:14:53;;;;;;;;;;;;;;;;;;4970183;28;19925;-89
2023/08/17 15:17:19;;;;;;;;;;;;;;;;;;4969618;28;20016;-88
2023/08/17 15:19:45;;;;;;;;;;;;;;;;;;4954175;28;20424;-88
2023/08/17 15:22:11;;;;;;;;;;;;;;;;;;4957293;28;19916;-88
2023/08/17 15:24:37;;;;;;;;;;;;;;;;;;4949697;28;19914;-89
2023/08/17 15:27:03;;;;;;;;;;;;;;;;;;4950315;28;19978;-88
2023/08/17 15:29:29;;;;;;;;;;;;;;;;;;4951853;28;19928;-89
2023/08/17 15:31:55;;;;;;;;;;;;;;;;;;4955726;28;19917;-90
2023/08/17 15:34:20;;;;;;;;;;;;;;;;;;4953642;28;19914;-89
2023/08/17 15:36:46;;;;;;;;;;;;;;;;;;4954803;28;19914;-88
2023/08/17 15:39:12;;;;;;;;;;;;;;;;;;4953170;28;19918;-89
2023/08/17 15:41:38;;;;;;;;;;;;;;;;;;4952935;28;19922;-88
2023/08/17 15:44:04;;;;;;;;;;;;;;;;;;4970646;28;19918;-88
2023/08/17 15:46:31;;;;;;;;;;;;;;;;;;4957106;28;19938;-89
2023/08/17 15:48:57;;;;;;;;;;;;;;;;;;4952570;28;19914;-88
2023/08/17 15:51:23;;;;;;;;;;;;;;;;;;4967705;28;19924;-88
2023/08/17 15:53:50;;;;;;;;;;;;;;;;;;4956529;28;20330;-88
2023/08/17 15:56:15;;;;;;;;;;;;;;;;;;4952810;28;20449;-89
2023/08/17 15:58:41;;;;;;;;;;;;;;;;;;4971866;28;19913;-89
2023/08/17 16:01:08;;;;;;;;;;;;;;;;;;4970162;28;19910;-89
2023/08/17 16:03:37;;;;;;;;;;;;;;;;;;4954108;28;20430;-89
2023/08/17 16:06:03;;;;;;;;;;;;;;;;;;4963373;28;20423;-89
2023/08/17 16:08:29;;;;;;;;;;;;;;;;;;4966728;28;19918;-89
2023/08/17 16:10:55;;;;;;;;;;;;;;;;;;4967195;28;19914;-89
2023/08/17 16:13:21;;;;;;;;;;;;;;;;;;4948541;28;20341;-89
2023/08/17 16:15:47;;;;;;;;;;;;;;;;;;4952485;28;19910;-89
2023/08/17 16:18:13;;;;;;;;;;;;;;;;;;4969205;28;20420;-90
2023/08/17 16:20:39;;;;;;;;;;;;;;;;;;4954392;28;19910;-90
2023/08/17 16:23:05;;;;;;;;;;;;;;;;;;4971086;28;19993;-89
2023/08/17 16:25:32;;;;;;;;;;;;;;;;;;4955262;28;19910;-89
2023/08/17 16:27:58;;;;;;;;;;;;;;;;;;4957532;28;19985;-89
2023/08/17 16:30:24;;;;;;;;;;;;;;;;;;4974623;28;20369;-89
2023/08/17 16:32:49;;;;;;;;;;;;;;;;;;4955521;28;19918;-89
2023/08/17 16:35:16;;;;;;;;;;;;;;;;;;4967869;28;19913;-89
2023/08/17 16:37:48;;;;;;;;;;;;;;;;;;4952865;28;19914;-90
2023/08/17 16:40:15;;;;;;;;;;;;;;;;;;4953554;28;19918;-89